Weather at Kagoshima Airport

Public forecast

Using degrees Celsius for public forecast. Weather courtesy of forecast.io.

Current aviation weather report (METAR) for Kagoshima Airport

Retrieved 2021/10/21 03:00 UTC (2 hours ago):

RJFK 210300Z VRB01KT 7000 -RA BCFG FEW005 BKN040 OVC070 12/12 Q1017 RMK 1ST005 6SC040 8AS070 A3006 FG NW-E

Aviation forecast (TAF) for Kagoshima Airport

Retrieved 2021-10-21 00:31 UTC (4 hours ago):

TAF RJFK 202311Z 2100/2206 01006KT 8000 -SHRA FEW008 SCT020 BKN025 BECMG 2100/2102 11010KT TEMPO 2103/2106 4000 SHRA BR TEMPO 2106/2112 3000 SHRA BR FEW003 SCT005 BKN008 BECMG 2107/2109 33005KT